Time;durP1;ratioP1;P1;durP2;ratioP2;P2;SDS_P1;SDS_P2;PMS_P1;PMS_P2;Temp;Humidity;BMP_temperature;BMP_pressure;BME280_temperature;BME280_humidity;BME280_pressure;Samples;Min_cycle;Max_cycle;Signal;HPM_P1;HPM_P2
2023/01/07 00:01:09;;;;;;;13.00;8.00;;;;;;;9.18;100.00;101618.63;4954585;29;20486;-79
2023/01/07 00:03:35;;;;;;;12.07;8.30;;;;;;;9.03;100.00;101588.38;4954657;29;20038;-79
2023/01/07 00:06:03;;;;;;;12.95;8.95;;;;;;;8.96;100.00;101582.69;4954659;29;20471;-80
2023/01/07 00:08:29;;;;;;;12.70;8.10;;;;;;;9.13;100.00;101611.09;4954514;29;20027;-80
2023/01/07 00:10:55;;;;;;;11.73;8.18;;;;;;;9.06;100.00;101598.56;4954670;29;20391;-80
2023/01/07 00:13:20;;;;;;;11.75;8.45;;;;;;;9.22;100.00;101622.72;4954343;29;20027;-78
2023/01/07 00:15:46;;;;;;;13.63;8.55;;;;;;;9.22;100.00;101615.00;4954644;29;20110;-80
2023/01/07 00:18:11;;;;;;;11.98;8.07;;;;;;;9.19;100.00;101620.31;4954719;29;20419;-78
2023/01/07 00:20:36;;;;;;;14.35;7.97;;;;;;;9.13;100.00;101617.97;4936805;29;20043;-80
2023/01/07 00:23:01;;;;;;;12.80;8.43;;;;;;;9.11;100.00;101617.22;4954596;29;20059;-81
2023/01/07 00:25:27;;;;;;;13.77;8.60;;;;;;;9.10;100.00;101610.41;4954509;29;20023;-80
2023/01/07 00:27:53;;;;;;;12.55;9.18;;;;;;;9.12;100.00;101609.41;4954582;29;20383;-80
2023/01/07 00:30:18;;;;;;;11.00;8.40;;;;;;;9.16;100.00;101610.13;4954382;29;20034;-80
2023/01/07 00:33:03;;;;;;;13.43;9.30;;;;;;;9.04;100.00;101584.91;4954172;29;20035;-80
2023/01/07 00:35:35;;;;;;;14.57;9.07;;;;;;;9.19;100.00;101599.69;4954442;29;20051;-80
2023/01/07 00:38:04;;;;;;;12.30;9.43;;;;;;;9.05;100.00;101577.13;4954563;29;20123;-78
2023/01/07 00:40:31;;;;;;;15.98;9.50;;;;;;;9.04;100.00;101569.44;4936967;29;20120;-78
2023/01/07 00:43:00;;;;;;;13.85;8.57;;;;;;;9.17;100.00;101588.63;4956834;28;20110;-79
2023/01/07 00:45:28;;;;;;;14.15;9.88;;;;;;;9.13;100.00;101593.06;4958187;29;20383;-78
2023/01/07 00:47:54;;;;;;;14.77;9.45;;;;;;;9.03;100.00;101575.50;4958270;29;20027;-79
2023/01/07 00:50:20;;;;;;;14.63;9.55;;;;;;;9.10;100.00;101589.78;4957986;29;20492;-79
2023/01/07 00:52:46;;;;;;;15.40;9.43;;;;;;;9.02;100.00;101577.25;4958186;29;20027;-79
2023/01/07 00:55:13;;;;;;;15.43;10.25;;;;;;;8.97;100.00;101580.94;4957963;29;20219;-79
2023/01/07 00:57:39;;;;;;;14.05;10.05;;;;;;;8.81;100.00;101562.75;4958210;29;20071;-79
2023/01/07 01:00:05;;;;;;;16.05;10.15;;;;;;;8.76;100.00;101555.22;4957977;29;20059;-79
2023/01/07 01:02:31;;;;;;;15.35;10.65;;;;;;;8.77;100.00;101562.03;4940370;29;20019;-79
2023/01/07 01:04:56;;;;;;;16.05;10.88;;;;;;;8.71;100.00;101540.88;4958097;29;20365;-79
2023/01/07 01:07:21;;;;;;;16.67;11.27;;;;;;;8.82;100.00;101566.97;4958124;29;20066;-80
2023/01/07 01:09:46;;;;;;;17.95;11.35;;;;;;;8.69;100.00;101540.94;4940588;29;20028;-79
2023/01/07 01:12:12;;;;;;;19.45;12.18;;;;;;;8.70;100.00;101542.59;4957717;29;20493;-79
2023/01/07 01:14:37;;;;;;;17.55;11.63;;;;;;;8.75;100.00;101550.97;4957745;29;20039;-78
2023/01/07 01:17:02;;;;;;;15.15;10.45;;;;;;;8.73;100.00;101551.94;4957515;29;20031;-79
2023/01/07 01:19:28;;;;;;;17.10;10.90;;;;;;;8.62;100.00;101542.94;4957989;29;20553;-79
2023/01/07 01:21:53;;;;;;;16.50;10.38;;;;;;;8.44;100.00;101517.97;4957673;29;20139;-79
2023/01/07 01:24:19;;;;;;;17.00;11.00;;;;;;;8.26;100.00;101493.03;4957772;29;20035;-79
2023/01/07 01:26:45;;;;;;;15.05;10.68;;;;;;;8.50;100.00;101548.63;4940480;29;20030;-80
2023/01/07 01:29:10;;;;;;;16.23;10.93;;;;;;;8.47;100.00;101546.19;4957476;29;20034;-79
2023/01/07 01:31:36;;;;;;;16.20;9.73;;;;;;;8.33;100.00;101518.41;4957404;29;20023;-78
2023/01/07 01:34:01;;;;;;;14.52;10.18;;;;;;;8.39;100.00;101531.97;4957369;29;20035;-78
2023/01/07 01:36:27;;;;;;;14.43;9.60;;;;;;;8.40;100.00;101536.22;4957563;29;20067;-78
2023/01/07 01:38:52;;;;;;;18.20;10.43;;;;;;;8.38;100.00;101533.72;4957454;29;20051;-77
2023/01/07 01:41:18;;;;;;;13.57;9.55;;;;;;;8.36;100.00;101539.78;4957242;29;20042;-79
2023/01/07 01:43:43;;;;;;;16.48;10.65;;;;;;;8.19;100.00;101512.19;4957090;29;20031;-79
2023/01/07 01:46:36;;;;;;;15.90;9.80;;;;;;;8.38;100.00;101540.59;4957312;29;20476;-79
2023/01/07 01:49:30;;;;;;;15.10;9.23;;;;;;;8.39;100.00;101539.69;4957216;29;20034;-78
2023/01/07 01:52:14;;;;;;;16.30;10.35;;;;;;;8.20;100.00;101503.56;4957123;29;20379;-80
2023/01/07 01:54:43;;;;;;;17.58;9.55;;;;;;;8.41;100.00;101545.59;4956692;28;20066;-79
2023/01/07 01:57:08;;;;;;;17.35;10.20;;;;;;;8.43;100.00;101546.34;4956848;29;20159;-79
2023/01/07 01:59:38;;;;;;;13.68;9.27;;;;;;;8.20;100.00;101508.72;4957049;29;20114;-79
2023/01/07 02:02:05;;;;;;;18.80;9.85;;;;;;;8.22;100.00;101522.34;4956867;29;20154;-79
2023/01/07 02:04:32;;;;;;;13.95;9.23;;;;;;;8.33;100.00;101533.84;4939614;29;20035;-80
2023/01/07 02:07:18;;;;;;;14.40;9.77;;;;;;;8.38;100.00;101536.28;4956977;29;20062;-79
2023/01/07 02:09:49;;;;;;;13.90;9.32;;;;;;;8.34;100.00;101540.69;4956895;29;20035;-79
2023/01/07 02:12:47;;;;;;;15.73;10.02;;;;;;;8.27;100.00;101528.16;4939185;29;20446;-80
2023/01/07 02:15:24;;;;;;;14.55;9.77;;;;;;;8.28;100.00;101530.66;4956742;29;20391;-80
2023/01/07 02:18:05;;;;;;;14.13;9.50;;;;;;;8.15;100.00;101508.88;4956641;29;20027;-80
2023/01/07 02:20:58;;;;;;;14.48;9.27;;;;;;;8.16;100.00;101512.28;4956560;29;20024;-78
2023/01/07 02:23:51;;;;;;;15.85;9.60;;;;;;;8.21;100.00;101518.94;4956633;29;20039;-79
2023/01/07 02:26:44;;;;;;;15.95;8.50;;;;;;;8.22;100.00;101527.50;4956537;29;20038;-79
2023/01/07 02:29:34;;;;;;;13.52;9.23;;;;;;;8.19;100.00;101531.03;4956636;29;20035;-79
2023/01/07 02:32:05;;;;;;;16.08;9.35;;;;;;;8.14;100.00;101525.22;4956389;29;20031;-79
2023/01/07 02:34:49;;;;;;;15.85;9.55;;;;;;;8.13;100.00;101528.72;4956386;29;20027;-79
2023/01/07 02:37:57;;;;;;;13.98;9.35;;;;;;;8.13;100.00;101538.16;4956363;29;20034;-79
2023/01/07 02:40:41;;;;;;;14.00;9.13;;;;;;;8.13;100.00;101526.13;4956209;29;20035;-78
2023/01/07 02:43:12;;;;;;;14.48;8.43;;;;;;;8.11;100.00;101524.53;4956433;29;20502;-78
2023/01/07 02:46:27;;;;;;;13.48;8.80;;;;;;;8.08;100.00;101527.25;4956374;29;20420;-78
2023/01/07 02:48:52;;;;;;;15.82;8.57;;;;;;;7.90;100.00;101491.09;4878219;29;20136;-80
2023/01/07 02:51:18;;;;;;;14.38;8.45;;;;;;;8.05;100.00;101518.72;4878468;29;20112;-79
2023/01/07 02:53:47;;;;;;;15.10;8.98;;;;;;;8.08;100.00;101517.78;4878416;29;20128;-78
2023/01/07 02:56:44;;;;;;;13.25;8.50;;;;;;;8.04;100.00;101505.94;4878081;29;20052;-79
2023/01/07 02:59:41;;;;;;;13.93;8.70;;;;;;;7.79;100.00;101462.41;4878038;29;20503;-79
2023/01/07 03:02:09;;;;;;;14.32;8.82;;;;;;;8.11;100.00;101519.38;4823026;29;20113;-78
2023/01/07 03:04:37;;;;;;;13.63;8.10;;;;;;;8.09;100.00;101511.75;4822022;29;20042;-79
2023/01/07 03:07:36;;;;;;;18.23;8.25;;;;;;;8.09;100.00;101509.16;4822731;29;20098;-79
2023/01/07 03:10:14;;;;;;;14.48;8.15;;;;;;;8.14;100.00;101507.22;4822742;29;20034;-78
2023/01/07 03:12:45;;;;;;;14.00;8.15;;;;;;;8.19;100.00;101507.03;4822740;29;20126;-80
2023/01/07 03:15:21;;;;;;;12.30;7.50;;;;;;;8.12;100.00;101478.16;4822881;29;20045;-79
2023/01/07 03:18:16;;;;;;;11.60;7.97;;;;;;;8.28;100.00;101498.94;4822710;29;20054;-79
2023/01/07 03:20:44;;;;;;;12.40;7.80;;;;;;;8.31;100.00;101491.91;4822624;29;20038;-79
2023/01/07 03:23:13;;;;;;;10.73;7.10;;;;;;;8.29;100.00;101491.16;4822487;29;20076;-79
2023/01/07 03:25:46;;;;;;;10.95;7.75;;;;;;;8.15;100.00;101460.00;4858987;29;20045;-79
2023/01/07 03:28:16;;;;;;;12.82;7.20;;;;;;;8.30;100.00;101479.94;4877680;29;20108;-79
2023/01/07 03:30:43;;;;;;;11.57;6.78;;;;;;;8.19;100.00;101453.03;4877558;29;20037;-80
2023/01/07 03:33:27;;;;;;;11.45;7.15;;;;;;;8.32;100.00;101472.16;4877650;29;20062;-80
2023/01/07 03:35:57;;;;;;;9.55;6.68;;;;;;;8.19;100.00;101450.44;4877404;29;20033;-79
2023/01/07 03:38:24;;;;;;;11.75;7.28;;;;;;;8.29;100.00;101462.00;4937844;29;20039;-79
2023/01/07 03:40:51;;;;;;;10.95;6.43;;;;;;;8.26;100.00;101451.88;4955267;29;20031;-79
2023/01/07 03:43:18;;;;;;;11.77;5.80;;;;;;;8.31;100.00;101458.47;4955210;29;20019;-79
2023/01/07 03:45:45;;;;;;;8.88;5.85;;;;;;;8.09;100.00;101408.84;4955075;29;20111;-79
2023/01/07 03:48:11;;;;;;;11.73;6.47;;;;;;;8.42;100.00;101454.63;4955197;29;20085;-80
2023/01/07 03:50:36;;;;;;;11.70;5.95;;;;;;;8.42;100.00;101452.03;4954913;29;20511;-79
2023/01/07 03:53:02;;;;;;;9.20;6.20;;;;;;;8.42;100.00;101452.88;4954969;29;20043;-78
2023/01/07 03:55:28;;;;;;;10.45;5.97;;;;;;;8.44;100.00;101447.66;4955273;29;20097;-80
2023/01/07 03:57:54;;;;;;;9.57;6.10;;;;;;;8.47;100.00;101450.13;4954909;29;20031;-79
2023/01/07 04:00:19;;;;;;;10.50;6.30;;;;;;;8.45;100.00;101433.88;4954863;29;20027;-79
2023/01/07 04:02:44;;;;;;;9.50;5.90;;;;;;;8.55;100.00;101442.88;4954834;29;20042;-78
2023/01/07 04:05:10;;;;;;;10.70;5.95;;;;;;;8.60;100.00;101448.66;4954681;29;20081;-79
2023/01/07 04:07:36;;;;;;;9.30;5.05;;;;;;;8.31;100.00;101394.13;4954806;29;20023;-79
2023/01/07 04:10:03;;;;;;;9.13;5.47;;;;;;;8.45;100.00;101406.41;4954741;29;20039;-79
2023/01/07 04:12:28;;;;;;;10.25;5.47;;;;;;;8.54;100.00;101415.44;4954801;29;20031;-79
2023/01/07 04:14:53;;;;;;;7.47;4.90;;;;;;;8.65;100.00;101430.41;4954494;29;20034;-79
2023/01/07 04:17:19;;;;;;;10.07;5.63;;;;;;;8.63;100.00;101426.16;4954622;28;20035;-80
2023/01/07 04:19:44;;;;;;;8.00;5.35;;;;;;;8.69;100.00;101421.66;4954542;29;20023;-80
2023/01/07 04:22:10;;;;;;;9.77;5.47;;;;;;;8.71;100.00;101425.00;4954627;29;20483;-79
2023/01/07 04:24:35;;;;;;;10.52;4.95;;;;;;;8.72;100.00;101417.19;4954722;29;20027;-79
2023/01/07 04:27:01;;;;;;;7.65;5.00;;;;;;;8.74;100.00;101420.53;4954705;29;20475;-79
2023/01/07 04:29:26;;;;;;;8.35;4.47;;;;;;;8.75;100.00;101411.06;4954677;29;20019;-79
2023/01/07 04:31:52;;;;;;;8.82;4.82;;;;;;;8.66;100.00;101394.31;4954811;29;20027;-79
2023/01/07 04:34:17;;;;;;;8.40;4.65;;;;;;;8.76;100.00;101411.03;4954532;29;20027;-80
2023/01/07 04:36:42;;;;;;;8.18;4.70;;;;;;;8.74;100.00;101399.09;4954466;29;20054;-80
2023/01/07 04:39:08;;;;;;;7.75;4.38;;;;;;;8.79;100.00;101398.00;4954581;29;20034;-80
2023/01/07 04:41:33;;;;;;;8.23;4.65;;;;;;;8.64;100.00;101370.38;4936934;29;20122;-77
2023/01/07 04:43:59;;;;;;;7.20;4.40;;;;;;;8.79;100.00;101398.00;4954634;29;20113;-79
2023/01/07 04:46:24;;;;;;;10.95;4.63;;;;;;;8.66;100.00;101370.31;4936525;29;20035;-81
2023/01/07 04:48:50;;;;;;;6.65;4.18;;;;;;;8.67;100.00;101379.72;4954366;29;20492;-80
2023/01/07 04:51:15;;;;;;;8.38;4.45;;;;;;;8.74;100.00;101388.78;4954273;29;20042;-80
2023/01/07 04:53:41;;;;;;;7.32;4.00;;;;;;;8.76;100.00;101393.00;4954489;29;20210;-81
2023/01/07 04:56:07;;;;;;;8.30;4.55;;;;;;;8.76;100.00;101394.72;4954463;29;20035;-81
2023/01/07 04:58:33;;;;;;;8.00;4.10;;;;;;;8.74;100.00;101392.22;4954368;29;20399;-80
2023/01/07 05:00:59;;;;;;;8.85;4.50;;;;;;;8.68;100.00;101377.06;4936955;29;20023;-80
2023/01/07 05:03:25;;;;;;;7.40;4.38;;;;;;;8.75;100.00;101391.31;4954326;29;20039;-80
2023/01/07 05:05:50;;;;;;;9.98;4.25;;;;;;;8.77;100.00;101378.38;4954345;29;20027;-78
2023/01/07 05:08:15;;;;;;;9.80;4.25;;;;;;;8.71;100.00;101361.47;4954426;29;20383;-78
2023/01/07 05:10:41;;;;;;;8.70;4.30;;;;;;;8.81;100.00;101380.72;4954387;29;20475;-77
2023/01/07 05:13:06;;;;;;;7.90;3.83;;;;;;;8.75;100.00;101375.00;4954137;29;20030;-78
2023/01/07 05:15:31;;;;;;;9.57;4.00;;;;;;;8.84;100.00;101378.00;4954291;29;20038;-78
2023/01/07 05:17:57;;;;;;;7.03;4.03;;;;;;;8.74;100.00;101366.47;4954069;29;20103;-78
2023/01/07 05:20:22;;;;;;;5.20;3.50;;;;;;;8.81;100.00;101374.75;4954151;29;20038;-78
2023/01/07 05:22:47;;;;;;;6.55;3.85;;;;;;;8.88;100.00;101378.72;4954101;29;20027;-79
2023/01/07 05:25:13;;;;;;;6.97;4.18;;;;;;;8.89;100.00;101370.91;4954149;29;20023;-78
2023/01/07 05:27:38;;;;;;;6.32;3.55;;;;;;;8.91;100.00;101376.81;4954192;28;20032;-78
2023/01/07 05:30:04;;;;;;;8.95;3.78;;;;;;;8.91;100.00;101370.81;4957485;29;20383;-78
2023/01/07 05:32:30;;;;;;;6.30;3.50;;;;;;;8.90;100.00;101370.00;4957440;29;20031;-78
2023/01/07 05:34:56;;;;;;;7.43;3.70;;;;;;;8.91;100.00;101365.66;4957654;29;20032;-78
2023/01/07 05:37:21;;;;;;;7.28;4.35;;;;;;;8.90;100.00;101366.59;4957317;29;20031;-78
2023/01/07 05:39:47;;;;;;;6.22;3.28;;;;;;;8.85;100.00;101366.81;4957453;29;20387;-78
2023/01/07 05:42:12;;;;;;;9.57;3.78;;;;;;;8.87;100.00;101359.00;4957433;29;20106;-79
2023/01/07 05:44:37;;;;;;;6.63;3.75;;;;;;;8.71;100.00;101334.88;4957263;29;20038;-79
2023/01/07 05:47:02;;;;;;;7.43;3.45;;;;;;;8.88;100.00;101361.50;4957322;29;20384;-80
2023/01/07 05:49:28;;;;;;;5.25;3.00;;;;;;;8.87;100.00;101359.84;4957237;29;20031;-80
2023/01/07 05:51:53;;;;;;;5.13;3.20;;;;;;;8.86;100.00;101357.34;4957011;29;20031;-80
2023/01/07 05:54:18;;;;;;;4.70;3.30;;;;;;;8.85;100.00;101356.50;4957086;29;20039;-80
2023/01/07 05:56:44;;;;;;;6.45;3.15;;;;;;;8.85;100.00;101358.25;4956927;29;20043;-80
2023/01/07 05:59:09;;;;;;;4.88;3.17;;;;;;;8.86;100.00;101353.03;4956860;29;20024;-80
2023/01/07 06:01:34;;;;;;;5.38;3.30;;;;;;;8.85;100.00;101356.50;4957041;29;20055;-79
2023/01/07 06:04:00;;;;;;;4.43;2.78;;;;;;;8.60;100.00;101310.47;4957028;29;20054;-79
2023/01/07 06:06:25;;;;;;;6.60;2.83;;;;;;;8.80;100.00;101332.69;4957117;29;20035;-80
2023/01/07 06:08:50;;;;;;;4.57;2.92;;;;;;;8.64;100.00;101308.56;4957043;29;20420;-80
2023/01/07 06:11:16;;;;;;;7.38;2.95;;;;;;;8.84;100.00;101334.22;4956707;29;20023;-80
2023/01/07 06:13:41;;;;;;;5.20;2.90;;;;;;;8.84;100.00;101334.22;4956807;29;20111;-79
2023/01/07 06:16:09;;;;;;;5.95;2.80;;;;;;;8.85;100.00;101329.94;4956774;29;20032;-80
2023/01/07 06:18:35;;;;;;;6.20;2.53;;;;;;;8.82;100.00;101323.16;4956783;29;20019;-80
2023/01/07 06:21:01;;;;;;;6.43;2.70;;;;;;;8.81;100.00;101321.50;4956841;29;20027;-80
2023/01/07 06:23:26;;;;;;;6.15;2.95;;;;;;;8.80;100.00;101309.53;4956620;29;20035;-81
2023/01/07 06:25:51;;;;;;;7.10;2.58;;;;;;;8.88;100.00;101316.91;4956507;29;20089;-80
2023/01/07 06:28:17;;;;;;;7.03;2.90;;;;;;;8.68;100.00;101281.78;4956596;29;20035;-80
2023/01/07 06:30:46;;;;;;;6.70;2.70;;;;;;;8.88;100.00;101317.72;4956665;29;20068;-80
2023/01/07 06:33:12;;;;;;;7.00;2.40;;;;;;;8.88;100.00;101311.75;4956475;29;20032;-80
2023/01/07 06:35:38;;;;;;;5.07;2.47;;;;;;;8.76;100.00;101284.84;4956361;29;20118;-80
2023/01/07 06:38:03;;;;;;;5.57;2.28;;;;;;;8.89;100.00;101313.41;4939070;29;20054;-79
2023/01/07 06:40:29;;;;;;;5.47;2.33;;;;;;;8.74;100.00;101275.50;4955237;28;20038;-81
2023/01/07 06:42:54;;;;;;;5.10;2.33;;;;;;;8.74;100.00;101276.34;4956375;29;20031;-80
2023/01/07 06:45:19;;;;;;;5.07;1.95;;;;;;;8.90;100.00;101302.19;4956196;29;20031;-80
2023/01/07 06:47:47;;;;;;;3.78;2.00;;;;;;;8.90;100.00;101300.44;4956255;29;20102;-80
2023/01/07 06:50:13;;;;;;;2.95;2.00;;;;;;;8.88;100.00;101294.53;4956058;29;20106;-80
2023/01/07 06:52:38;;;;;;;4.28;2.00;;;;;;;8.86;100.00;101293.78;4955882;29;20024;-79
2023/01/07 06:55:04;;;;;;;5.03;2.17;;;;;;;8.73;100.00;101273.84;4956194;29;20150;-81
2023/01/07 06:57:29;;;;;;;3.65;1.70;;;;;;;8.84;100.00;101293.00;4955958;29;20053;-80
2023/01/07 06:59:55;;;;;;;6.00;1.92;;;;;;;8.84;100.00;101289.59;4956097;29;20038;-82
2023/01/07 07:02:23;;;;;;;3.90;2.35;;;;;;;8.67;100.00;101256.97;4955823;29;20031;-82
2023/01/07 07:04:49;;;;;;;2.72;1.95;;;;;;;8.70;100.00;101269.69;4955816;29;20047;-81
2023/01/07 07:07:15;;;;;;;4.88;2.03;;;;;;;8.55;100.00;101237.78;4955704;29;20106;-81
2023/01/07 07:09:41;;;;;;;4.07;1.95;;;;;;;8.84;100.00;101285.28;4955546;29;20023;-81
2023/01/07 07:12:07;;;;;;;5.18;1.70;;;;;;;8.82;100.00;101274.22;4955590;29;20106;-82
2023/01/07 07:14:33;;;;;;;2.75;1.73;;;;;;;8.78;100.00;101266.75;4955840;29;20058;-79
2023/01/07 07:16:58;;;;;;;3.55;1.63;;;;;;;8.73;100.00;101259.22;4955744;29;20411;-81
2023/01/07 07:19:23;;;;;;;4.45;1.90;;;;;;;8.55;100.00;101218.91;4937888;29;20433;-79
2023/01/07 07:21:49;;;;;;;4.63;1.77;;;;;;;8.80;100.00;101270.06;4955332;29;20348;-79
2023/01/07 07:24:14;;;;;;;6.53;2.10;;;;;;;8.77;100.00;101263.34;4955166;29;20074;-80
2023/01/07 07:26:40;;;;;;;3.55;1.90;;;;;;;8.78;100.00;101270.16;4955452;29;20023;-81
2023/01/07 07:29:08;;;;;;;4.07;1.98;;;;;;;8.76;100.00;101258.25;4955588;29;20038;-81
2023/01/07 07:31:34;;;;;;;3.45;1.92;;;;;;;8.74;100.00;101267.78;4937654;29;20035;-80
2023/01/07 07:33:59;;;;;;;3.10;2.00;;;;;;;8.55;100.00;101248.09;4955372;29;20047;-80
2023/01/07 07:36:24;;;;;;;3.38;1.63;;;;;;;8.69;100.00;101265.44;4937576;29;20043;-80
2023/01/07 07:38:50;;;;;;;6.65;2.10;;;;;;;8.67;100.00;101262.09;4955176;29;20042;-80
2023/01/07 07:41:15;;;;;;;6.25;3.00;;;;;;;8.58;100.00;101252.25;4937742;29;20098;-80
2023/01/07 07:43:40;;;;;;;6.65;2.60;;;;;;;8.42;100.00;101225.56;4955325;29;20085;-80
2023/01/07 07:46:06;;;;;;;5.15;2.13;;;;;;;8.44;100.00;101226.31;4955300;29;20031;-80
2023/01/07 07:48:31;;;;;;;4.20;1.88;;;;;;;8.48;100.00;101230.44;4955220;29;20038;-80
2023/01/07 07:50:57;;;;;;;3.63;1.80;;;;;;;8.59;100.00;101253.91;4954573;28;20019;-80
2023/01/07 07:53:22;;;;;;;3.40;1.90;;;;;;;8.56;100.00;101236.88;4954614;29;20068;-80
2023/01/07 07:55:47;;;;;;;3.25;1.73;;;;;;;8.64;100.00;101239.06;4954864;29;20035;-80
2023/01/07 07:58:13;;;;;;;4.60;2.35;;;;;;;8.68;100.00;101240.59;4954924;29;20382;-81
2023/01/07 08:00:39;;;;;;;5.75;1.98;;;;;;;8.64;100.00;101228.78;4954979;29;20110;-81
2023/01/07 08:03:04;;;;;;;3.13;1.90;;;;;;;8.65;100.00;101216.72;4955102;29;20110;-79
2023/01/07 08:05:30;;;;;;;5.30;2.30;;;;;;;8.68;100.00;101220.00;4954866;29;20530;-80
2023/01/07 08:07:57;;;;;;;3.08;2.03;;;;;;;8.81;100.00;101233.94;4936737;29;20122;-77
2023/01/07 08:10:24;;;;;;;4.80;2.13;;;;;;;8.63;99.11;101203.94;4954743;29;20062;-79
2023/01/07 08:12:50;;;;;;;2.92;1.80;;;;;;;8.86;99.26;101226.00;4954768;29;20034;-80
2023/01/07 08:15:16;;;;;;;3.50;2.13;;;;;;;8.81;98.48;101220.22;4954846;29;20379;-80
2023/01/07 08:17:41;;;;;;;4.68;2.20;;;;;;;8.80;98.90;101227.13;4937374;29;20031;-81
2023/01/07 08:20:07;;;;;;;6.57;2.40;;;;;;;8.70;97.73;101205.31;4954646;29;20023;-80
2023/01/07 08:22:33;;;;;;;4.35;1.90;;;;;;;8.81;98.22;101220.22;4954740;29;20446;-80
2023/01/07 08:24:59;;;;;;;3.75;2.10;;;;;;;8.87;98.50;101223.34;4954696;29;20031;-81
2023/01/07 08:27:26;;;;;;;3.63;1.85;;;;;;;8.90;98.58;101218.03;4953849;28;20379;-76
2023/01/07 08:29:56;;;;;;;3.85;1.80;;;;;;;8.87;97.75;101215.63;4955360;29;20083;-76
2023/01/07 08:32:22;;;;;;;2.95;1.58;;;;;;;8.96;97.36;101218.66;4954429;29;20106;-80
2023/01/07 08:34:47;;;;;;;3.00;1.55;;;;;;;8.96;97.38;101211.75;4954473;29;20110;-81
2023/01/07 08:37:12;;;;;;;2.92;1.80;;;;;;;8.83;96.88;101185.75;4954534;29;20063;-79
2023/01/07 08:39:38;;;;;;;3.65;1.60;;;;;;;9.09;96.18;101210.22;4954242;29;20138;-80
2023/01/07 08:42:03;;;;;;;2.50;1.80;;;;;;;9.11;96.69;101210.97;4954572;29;20027;-80
2023/01/07 08:44:29;;;;;;;2.88;1.80;;;;;;;9.11;96.34;101199.84;4937224;29;20043;-78
2023/01/07 08:46:54;;;;;;;3.42;1.65;;;;;;;9.16;95.88;101205.59;4954316;29;20431;-79
2023/01/07 08:49:20;;;;;;;3.03;1.90;;;;;;;9.19;95.66;101202.84;4937341;29;20028;-78
2023/01/07 08:51:45;;;;;;;3.13;1.80;;;;;;;9.22;95.60;101204.44;4954441;29;20391;-79
2023/01/07 08:54:10;;;;;;;5.78;2.10;;;;;;;9.17;94.95;101199.53;4954071;28;20043;-80
2023/01/07 08:56:35;;;;;;;3.92;1.77;;;;;;;9.24;94.68;101205.19;4954154;29;20513;-80
2023/01/07 08:59:01;;;;;;;4.43;2.05;;;;;;;9.17;95.25;101197.78;4954269;29;20023;-80
2023/01/07 09:01:26;;;;;;;3.30;2.17;;;;;;;9.19;94.83;101192.53;4954353;28;20491;-79
2023/01/07 09:03:52;;;;;;;3.67;1.77;;;;;;;9.27;94.24;101202.47;4956301;28;20066;-81
2023/01/07 09:06:17;;;;;;;3.15;1.52;;;;;;;9.29;93.17;101198.06;4958307;29;20027;-80
2023/01/07 09:08:42;;;;;;;4.18;1.92;;;;;;;9.30;93.73;101194.56;4957903;29;20118;-80
2023/01/07 09:11:08;;;;;;;5.32;1.88;;;;;;;9.32;93.61;101188.41;4939842;29;20078;-80
2023/01/07 09:13:33;;;;;;;3.38;1.70;;;;;;;9.34;93.70;101196.94;4958097;28;20094;-81
2023/01/07 09:15:59;;;;;;;4.07;1.73;;;;;;;9.26;93.00;101164.72;4957741;28;20029;-81
2023/01/07 09:18:24;;;;;;;3.63;1.65;;;;;;;9.38;92.87;101187.28;4958038;29;20474;-80
2023/01/07 09:20:50;;;;;;;3.67;1.70;;;;;;;9.40;93.48;101178.53;4957778;28;20031;-80
2023/01/07 09:23:15;;;;;;;3.30;2.10;;;;;;;9.43;92.74;101180.94;4957639;29;20475;-81
2023/01/07 09:25:41;;;;;;;3.47;1.58;;;;;;;9.37;92.47;101165.00;4957420;29;20023;-80
2023/01/07 09:28:06;;;;;;;2.38;1.50;;;;;;;9.49;92.38;101169.50;4957520;28;20590;-79
2023/01/07 09:30:31;;;;;;;2.72;1.60;;;;;;;9.55;91.46;101173.50;4940213;29;20047;-81
2023/01/07 09:32:57;;;;;;;2.92;1.67;;;;;;;9.57;91.26;101172.50;4957417;29;20062;-80
2023/01/07 09:35:22;;;;;;;5.45;1.67;;;;;;;9.56;90.52;101163.13;4957545;29;20027;-80
2023/01/07 09:37:47;;;;;;;3.22;1.70;;;;;;;9.36;90.73;101116.94;4957526;29;20031;-81
2023/01/07 09:40:25;;;;;;;2.72;1.80;;;;;;;9.34;90.60;101116.16;4957154;29;20047;-80
2023/01/07 09:42:59;;;;;;;2.35;1.60;;;;;;;9.64;89.88;101152.41;4957306;29;20031;-81
2023/01/07 09:45:28;;;;;;;2.78;1.67;;;;;;;9.66;90.11;101151.38;4957577;29;20106;-80
2023/01/07 09:47:56;;;;;;;2.33;1.60;;;;;;;9.68;89.64;101135.84;4957401;29;20031;-81
2023/01/07 09:50:55;;;;;;;3.40;1.52;;;;;;;9.78;89.91;101137.00;4957215;29;20039;-81
2023/01/07 09:53:39;;;;;;;3.30;1.58;;;;;;;9.81;89.60;101134.22;4957083;29;20114;-80
2023/01/07 09:56:14;;;;;;;3.20;1.58;;;;;;;9.83;88.17;101134.16;4956889;29;20051;-85
2023/01/07 09:58:43;;;;;;;2.75;1.60;;;;;;;9.88;87.50;101137.31;4957175;29;20038;-82
2023/01/07 10:01:18;;;;;;;3.80;1.88;;;;;;;9.81;88.05;101103.28;4957095;29;20030;-77
2023/01/07 10:03:53;;;;;;;4.47;2.00;;;;;;;9.74;87.92;101077.03;4957127;29;20034;-79
2023/01/07 10:06:40;;;;;;;4.22;1.70;;;;;;;10.03;86.06;101123.59;4957421;29;20364;-81
2023/01/07 10:09:27;;;;;;;2.47;1.67;;;;;;;9.96;86.77;101112.78;4956856;29;20497;-82
2023/01/07 10:12:05;;;;;;;3.25;1.95;;;;;;;9.69;86.69;101080.75;4956449;29;20031;-82
2023/01/07 10:15:00;;;;;;;2.92;1.60;;;;;;;9.71;85.90;101079.75;4956232;28;20051;-81
2023/01/07 10:17:47;;;;;;;3.22;1.70;;;;;;;9.84;86.30;101099.72;4956335;29;20090;-82
2023/01/07 10:20:38;;;;;;;3.80;1.50;;;;;;;9.83;86.08;101080.81;4956560;29;20483;-81
2023/01/07 10:23:10;;;;;;;2.93;1.70;;;;;;;9.70;85.75;101060.03;4956837;29;20039;-81
2023/01/07 10:25:43;;;;;;;2.47;1.60;;;;;;;9.83;85.90;101073.06;4956305;29;20298;-82
2023/01/07 10:28:24;;;;;;;1.73;1.27;;;;;;;9.84;85.88;101066.19;4956644;29;20498;-81
2023/01/07 10:30:52;;;;;;;2.70;1.60;;;;;;;9.83;85.37;101060.19;4956503;29;20030;-81
2023/01/07 10:33:25;;;;;;;4.32;1.65;;;;;;;9.83;85.65;101039.53;4956567;29;20023;-81
2023/01/07 10:36:18;;;;;;;3.20;1.42;;;;;;;9.84;84.49;101041.22;4956361;29;20031;-81
2023/01/07 10:38:52;;;;;;;2.78;1.17;;;;;;;9.85;84.05;101027.41;4956321;29;20368;-82
2023/01/07 10:41:33;;;;;;;4.38;1.30;;;;;;;9.88;83.93;101031.56;4956085;29;20034;-81
2023/01/07 10:44:20;;;;;;;2.85;1.40;;;;;;;9.89;83.38;101023.72;4956390;29;20113;-81
2023/01/07 10:47:07;;;;;;;2.60;1.17;;;;;;;9.91;83.01;101026.22;4956048;29;20110;-81
2023/01/07 10:49:44;;;;;;;2.78;1.33;;;;;;;9.63;82.71;100983.94;4956201;29;20127;-81
2023/01/07 10:52:25;;;;;;;2.20;1.30;;;;;;;9.97;82.72;101028.47;4955912;29;20088;-81
2023/01/07 10:54:53;;;;;;;2.28;1.30;;;;;;;9.98;82.08;101015.47;4938494;29;20051;-82
2023/01/07 10:57:23;;;;;;;3.53;1.38;;;;;;;9.91;81.04;101003.84;4955682;29;20047;-80
2023/01/07 10:59:55;;;;;;;3.65;1.38;;;;;;;9.75;81.88;100969.53;4955979;29;20479;-79
2023/01/07 11:02:25;;;;;;;2.45;1.35;;;;;;;10.02;82.80;101003.22;4955763;29;20578;-81
2023/01/07 11:04:53;;;;;;;2.42;1.20;;;;;;;9.95;82.12;100978.72;4955860;29;20471;-81
2023/01/07 11:07:39;;;;;;;3.75;1.30;;;;;;;10.10;81.53;101000.19;4955951;29;20034;-80
2023/01/07 11:10:06;;;;;;;4.53;1.95;;;;;;;10.12;79.63;101000.94;4955852;29;20057;-81
2023/01/07 11:12:55;;;;;;;2.92;1.30;;;;;;;9.91;80.53;100954.00;4955629;29;20035;-80
2023/01/07 11:15:29;;;;;;;2.55;1.20;;;;;;;10.11;81.08;100981.22;4955475;29;20059;-81
2023/01/07 11:18:02;;;;;;;2.10;1.35;;;;;;;10.15;79.96;100977.56;4955488;29;20038;-81
2023/01/07 11:20:41;;;;;;;2.80;1.50;;;;;;;10.16;80.21;100979.22;4955399;29;20027;-81
2023/01/07 11:23:40;;;;;;;1.77;1.25;;;;;;;10.25;80.63;100974.38;4922140;29;20077;-80
2023/01/07 11:26:25;;;;;;;1.75;1.20;;;;;;;10.33;78.84;100972.16;4894633;29;20223;-79
2023/01/07 11:28:52;;;;;;;3.22;1.38;;;;;;;10.35;77.71;100959.16;4896810;29;20057;-77
2023/01/07 11:31:18;;;;;;;3.17;1.50;;;;;;;10.34;78.18;100954.94;4896404;29;20068;-78
2023/01/07 11:33:52;;;;;;;3.53;1.30;;;;;;;10.33;79.76;100950.69;4896074;29;20523;-77
2023/01/07 11:36:17;;;;;;;2.40;1.20;;;;;;;10.30;78.61;100945.69;4896971;29;20041;-77